Terminal Aerodrome Forecast
Issued by NWS

Home | Current Version | Previous Version | Text Only | Print | Product List | Glossary On
Versions: 1 2 3 4 5 6 7 8 9 10 11 12
724
FTUS46 KSGX 300520
TAFPSP
TAF
KPSP 300520Z 3006/3106 33013G20KT P6SM SCT200
     FM300700 VRB05KT P6SM SKC
     FM301900 10009KT P6SM SKC
     FM310100 34012KT P6SM SKC=

USA.gov is the U.S. government's official web portal to all federal, state and local government web resources and services.